Time;durP1;ratioP1;P1;durP2;ratioP2;P2;SDS_P1;SDS_P2;PMS_P1;PMS_P2;Temp;Humidity;BMP_temperature;BMP_pressure;BME280_temperature;BME280_humidity;BME280_pressure;Samples;Min_cycle;Max_cycle;Signal;HPM_P1;HPM_P2
2023/02/16 09:13:31;;;;;;;54.05;31.20;;;11.10;71.30;;;;;;6269733;22;20078;-73
2023/02/16 09:16:02;;;;;;;40.58;31.10;;;11.20;70.30;;;;;;6305664;22;20094;-74
2023/02/16 09:18:28;;;;;;;44.92;31.50;;;11.20;70.20;;;;;;6305465;22;20394;-74
2023/02/16 09:20:54;;;;;;;44.22;31.70;;;11.30;70.10;;;;;;6305721;22;20030;-74
2023/02/16 09:23:20;;;;;;;45.17;32.28;;;11.40;70.00;;;;;;6305274;22;20057;-75
2023/02/16 09:25:47;;;;;;;47.15;32.33;;;11.50;70.00;;;;;;6305581;22;20026;-74
2023/02/16 09:28:13;;;;;;;44.42;31.63;;;11.50;70.20;;;;;;6305971;22;20003;-75
2023/02/16 09:30:39;;;;;;;47.40;33.03;;;11.60;70.00;;;;;;6305910;22;20052;-75
2023/02/16 09:33:05;;;;;;;54.28;33.60;;;11.80;70.10;;;;;;6305743;22;20006;-74
2023/02/16 09:35:31;;;;;;;46.40;33.25;;;11.80;69.40;;;;;;6305822;22;20006;-75
2023/02/16 09:37:57;;;;;;;49.72;33.35;;;11.80;69.40;;;;;;6305330;22;19995;-75
2023/02/16 09:40:23;;;;;;;49.80;34.47;;;11.80;69.40;;;;;;6305461;22;20010;-72
2023/02/16 09:43:20;;;;;;;44.78;34.17;;;11.90;69.10;;;;;;6305092;22;20082;-76
2023/02/16 09:45:49;;;;;;;52.08;36.83;;;11.90;69.00;;;;;;6305098;22;20137;-75
2023/02/16 09:48:31;;;;;;;48.00;35.33;;;11.90;68.90;;;;;;6306042;22;19999;-73
2023/02/16 09:50:59;;;;;;;48.88;33.53;;;11.90;68.90;;;;;;6278547;22;20003;-75
2023/02/16 09:53:40;;;;;;;45.63;32.85;;;11.90;69.20;;;;;;6278198;22;20015;-74
2023/02/16 09:56:17;;;;;;;44.42;34.70;;;12.00;69.10;;;;;;6305885;22;20007;-75
2023/02/16 09:58:53;;;;;;;44.20;34.13;;;12.00;69.00;;;;;;6305265;22;19999;-75
2023/02/16 10:01:37;;;;;;;46.33;33.30;;;12.00;69.40;;;;;;6305597;22;20011;-75
2023/02/16 10:04:18;;;;;;;56.92;34.83;;;12.10;69.30;;;;;;6305391;22;20436;-76
2023/02/16 10:07:00;;;;;;;47.75;35.08;;;12.30;69.40;;;;;;6306693;22;20015;-74
2023/02/16 10:09:28;;;;;;;48.10;34.40;;;12.40;69.20;;;;;;6307331;22;19999;-75
2023/02/16 10:12:02;;;;;;;51.47;35.45;;;12.40;69.20;;;;;;6307389;22;20007;-75
2023/02/16 10:14:43;;;;;;;48.65;34.53;;;12.50;69.00;;;;;;6307475;22;20325;-75
2023/02/16 10:17:31;;;;;;;50.97;35.95;;;12.50;68.70;;;;;;6307374;22;20079;-75
2023/02/16 10:20:06;;;;;;;49.45;33.78;;;12.50;69.00;;;;;;6307183;22;19999;-75
2023/02/16 10:22:49;;;;;;;55.03;35.40;;;12.70;69.30;;;;;;6306603;22;20337;-76
2023/02/16 10:25:40;;;;;;;47.95;34.83;;;12.70;68.70;;;;;;6307768;22;20070;-75
2023/02/16 10:28:15;;;;;;;53.25;34.40;;;12.80;69.00;;;;;;6307616;22;20076;-82
2023/02/16 10:30:52;;;;;;;55.10;34.60;;;12.90;69.00;;;;;;6279949;22;20003;-80
2023/02/16 10:33:42;;;;;;;44.70;33.15;;;12.90;69.10;;;;;;6306356;22;20006;-75
2023/02/16 10:36:23;;;;;;;43.53;32.67;;;13.00;68.80;;;;;;6306960;22;20060;-76
2023/02/16 10:39:05;;;;;;;47.17;34.28;;;13.10;69.00;;;;;;6306631;22;20027;-76
2023/02/16 10:41:35;;;;;;;47.13;33.45;;;13.20;68.90;;;;;;6307328;22;19996;-76
2023/02/16 10:44:18;;;;;;;46.42;32.13;;;13.30;68.90;;;;;;6307328;22;20377;-76
2023/02/16 10:46:48;;;;;;;59.40;33.67;;;13.50;68.80;;;;;;6306624;22;20319;-75
2023/02/16 10:49:16;;;;;;;40.60;29.98;;;13.60;68.40;;;;;;6306922;22;20034;-75
2023/02/16 10:51:47;;;;;;;36.75;28.48;;;13.70;68.20;;;;;;6306351;22;20057;-73
2023/02/16 10:54:29;;;;;;;33.45;27.65;;;13.80;68.10;;;;;;6306681;22;20448;-78
2023/02/16 10:57:05;;;;;;;41.28;30.25;;;13.90;67.90;;;;;;6307196;22;20003;-73
2023/02/16 10:59:40;;;;;;;39.90;28.48;;;13.90;67.80;;;;;;6305815;22;20082;-71
2023/02/16 11:02:18;;;;;;;37.83;28.63;;;14.10;67.20;;;;;;6279352;22;20520;-72
2023/02/16 11:04:47;;;;;;;45.45;30.35;;;14.20;67.30;;;;;;6306311;22;19999;-73
2023/02/16 11:07:18;;;;;;;38.90;29.30;;;14.20;66.80;;;;;;6306879;22;20026;-73
2023/02/16 11:09:46;;;;;;;35.97;27.38;;;14.30;67.20;;;;;;6307920;22;19995;-82
2023/02/16 11:12:33;;;;;;;40.90;28.00;;;14.30;66.30;;;;;;6308153;22;20079;-84
2023/02/16 11:15:25;;;;;;;33.97;26.63;;;14.40;66.30;;;;;;6279729;22;20035;-82
2023/02/16 11:17:55;;;;;;;38.47;28.95;;;14.40;66.20;;;;;;6301443;22;20400;-86
2023/02/16 11:20:41;;;;;;;41.20;26.98;;;14.50;65.90;;;;;;6307893;22;20003;-84
2023/02/16 11:23:32;;;;;;;33.95;26.77;;;14.50;66.30;;;;;;6306425;22;20003;-80
2023/02/16 11:26:22;;;;;;;32.38;24.98;;;14.60;66.20;;;;;;6279590;22;20011;-81
2023/02/16 11:28:49;;;;;;;34.15;25.00;;;14.60;65.20;;;;;;6303633;22;20533;-81
2023/02/16 11:31:39;;;;;;;30.98;24.60;;;14.70;65.20;;;;;;6279192;22;20076;-80
2023/02/16 11:34:09;;;;;;;34.67;23.80;;;14.70;65.00;;;;;;6288229;22;20014;-79
2023/02/16 11:36:42;;;;;;;41.95;21.85;;;14.70;65.40;;;;;;6308372;22;20006;-81
2023/02/16 11:39:24;;;;;;;55.83;26.63;;;14.70;65.60;;;;;;6279239;22;19999;-82
2023/02/16 11:41:56;;;;;;;35.45;23.23;;;14.70;65.40;;;;;;6279114;22;20007;-78
2023/02/16 11:44:33;;;;;;;42.55;24.77;;;14.80;64.30;;;;;;6306825;22;20003;-83
2023/02/16 11:47:02;;;;;;;36.63;24.90;;;14.80;64.40;;;;;;6306588;22;20034;-75
2023/02/16 11:49:40;;;;;;;30.08;24.73;;;14.90;64.70;;;;;;6306260;22;20341;-79
2023/02/16 11:52:18;;;;;;;29.70;23.20;;;15.00;64.90;;;;;;6306233;22;20086;-80
2023/02/16 11:54:52;;;;;;;30.50;21.98;;;15.00;65.00;;;;;;6306602;22;19995;-75
2023/02/16 11:57:24;;;;;;;26.48;20.83;;;15.00;64.40;;;;;;6278133;22;20014;-75
2023/02/16 11:59:50;;;;;;;25.75;21.85;;;15.00;64.60;;;;;;6305619;22;19999;-75
2023/02/16 12:02:16;;;;;;;26.70;21.73;;;15.00;64.40;;;;;;6305977;22;20041;-74
2023/02/16 12:04:51;;;;;;;29.08;22.15;;;15.00;64.40;;;;;;6305569;22;20013;-75
2023/02/16 12:07:58;;;;;;;25.67;20.27;;;15.00;65.10;;;;;;6306287;22;20117;-76
2023/02/16 12:10:29;;;;;;;32.80;19.65;;;15.00;64.20;;;;;;6306309;22;19995;-74
2023/02/16 12:13:24;;;;;;;30.25;21.20;;;15.10;64.30;;;;;;6306299;22;20010;-74
2023/02/16 12:16:26;;;;;;;27.48;20.23;;;15.10;64.60;;;;;;6279091;22;20337;-75
2023/02/16 12:19:20;;;;;;;26.55;18.70;;;15.10;64.40;;;;;;6247551;22;20429;-74
2023/02/16 12:21:56;;;;;;;26.75;19.48;;;15.10;64.20;;;;;;6306010;22;19996;-74
2023/02/16 12:24:40;;;;;;;27.50;19.70;;;15.10;63.70;;;;;;6306144;22;20081;-76
2023/02/16 12:27:24;;;;;;;23.50;17.40;;;15.10;63.60;;;;;;6305880;22;20007;-74
2023/02/16 12:30:10;;;;;;;20.48;16.77;;;15.10;63.50;;;;;;6305971;22;20015;-77
2023/02/16 12:32:46;;;;;;;18.67;14.35;;;15.00;64.00;;;;;;6306585;22;20002;-75
2023/02/16 12:35:24;;;;;;;21.90;15.00;;;15.00;63.50;;;;;;6306076;22;20002;-75
2023/02/16 12:38:00;;;;;;;18.73;14.73;;;14.90;63.70;;;;;;6305892;22;19999;-75
2023/02/16 12:41:03;;;;;;;19.30;14.80;;;14.90;63.50;;;;;;6306383;22;20325;-76
2023/02/16 12:43:41;;;;;;;18.63;16.00;;;14.90;63.90;;;;;;6306342;22;20022;-75
2023/02/16 12:46:19;;;;;;;22.17;15.57;;;15.00;63.90;;;;;;6278327;22;20041;-75
2023/02/16 12:48:54;;;;;;;17.27;14.65;;;15.00;63.10;;;;;;6306242;22;20073;-75
2023/02/16 12:51:29;;;;;;;19.77;14.50;;;15.00;63.00;;;;;;6306258;22;19999;-75
2023/02/16 12:54:00;;;;;;;26.40;15.05;;;14.90;63.00;;;;;;6305954;22;20015;-75
2023/02/16 12:56:33;;;;;;;18.85;15.30;;;14.90;63.30;;;;;;6306157;22;20022;-75
2023/02/16 12:59:33;;;;;;;20.92;16.30;;;14.90;63.00;;;;;;6278754;22;20007;-75
2023/02/16 13:02:00;;;;;;;18.83;16.08;;;14.90;63.60;;;;;;6278861;22;20436;-74
2023/02/16 13:04:42;;;;;;;20.98;15.38;;;15.00;63.20;;;;;;6279001;22;20026;-76
2023/02/16 13:07:16;;;;;;;20.10;16.25;;;15.00;63.70;;;;;;6305482;22;20080;-75
2023/02/16 13:10:03;;;;;;;21.75;16.05;;;15.10;63.10;;;;;;6278595;22;20003;-75
2023/02/16 13:12:43;;;;;;;25.15;17.30;;;15.20;63.10;;;;;;6305931;22;20014;-76
2023/02/16 13:15:35;;;;;;;19.30;16.15;;;15.20;62.50;;;;;;6305776;22;20072;-74
2023/02/16 13:18:11;;;;;;;21.55;17.83;;;15.30;62.90;;;;;;6305950;22;19999;-75
2023/02/16 13:20:44;;;;;;;22.35;17.35;;;15.20;62.70;;;;;;6306021;22;19995;-76
2023/02/16 13:23:11;;;;;;;21.45;17.27;;;15.10;62.20;;;;;;6306455;22;20004;-76
2023/02/16 13:26:00;;;;;;;24.35;18.75;;;15.00;62.40;;;;;;6305811;22;20013;-72
2023/02/16 13:28:54;;;;;;;25.60;18.90;;;14.90;62.20;;;;;;6278709;22;20023;-74
2023/02/16 13:31:39;;;;;;;24.58;18.65;;;15.00;62.90;;;;;;6306558;22;19996;-75
2023/02/16 13:34:27;;;;;;;23.90;18.30;;;15.00;62.70;;;;;;6306061;22;20010;-75
2023/02/16 13:37:04;;;;;;;23.42;18.58;;;15.10;62.70;;;;;;6262373;22;20003;-75
2023/02/16 13:39:46;;;;;;;23.92;17.90;;;15.10;62.40;;;;;;6307103;22;20038;-75
2023/02/16 13:42:21;;;;;;;22.23;18.60;;;15.10;62.00;;;;;;6308074;22;20161;-75
2023/02/16 13:44:58;;;;;;;27.33;20.05;;;15.10;62.50;;;;;;6307776;22;20078;-75
2023/02/16 13:47:38;;;;;;;24.73;19.38;;;15.10;62.40;;;;;;6307953;22;20045;-78
2023/02/16 13:50:08;;;;;;;24.55;19.10;;;15.00;62.30;;;;;;6308142;22;20398;-76
2023/02/16 13:52:40;;;;;;;25.48;18.67;;;15.00;62.10;;;;;;6307830;22;19995;-74
2023/02/16 13:55:31;;;;;;;24.50;19.92;;;14.90;62.10;;;;;;6307951;22;20436;-76
2023/02/16 13:58:25;;;;;;;23.95;18.15;;;15.00;62.50;;;;;;6308465;22;19996;-75
2023/02/16 14:00:51;;;;;;;22.55;18.48;;;15.00;62.40;;;;;;6307805;22;20392;-75
2023/02/16 14:03:20;;;;;;;22.83;19.48;;;14.90;61.80;;;;;;6307945;22;19996;-74
2023/02/16 14:05:51;;;;;;;27.05;20.23;;;15.00;62.10;;;;;;6308270;22;20017;-74
2023/02/16 14:08:22;;;;;;;23.10;18.40;;;15.00;61.90;;;;;;6307936;22;20000;-75
2023/02/16 14:10:54;;;;;;;30.88;19.90;;;15.00;62.40;;;;;;6280572;22;20007;-74
2023/02/16 14:13:38;;;;;;;24.67;20.80;;;15.00;62.40;;;;;;6307779;22;19999;-74
2023/02/16 14:16:31;;;;;;;26.42;20.30;;;15.00;62.60;;;;;;6308127;22;20384;-77
2023/02/16 14:19:01;;;;;;;19.90;15.27;;;14.90;62.20;;;;;;6307677;22;20011;-75
2023/02/16 14:21:39;;;;;;;24.33;21.63;;;14.80;62.30;;;;;;6307805;22;20074;-74
2023/02/16 14:24:24;;;;;;;27.63;20.90;;;14.80;62.50;;;;;;6307816;22;20029;-77
2023/02/16 14:26:58;;;;;;;32.75;20.92;;;14.80;62.50;;;;;;6308057;22;20011;-74
2023/02/16 14:29:42;;;;;;;;;;;14.90;62.60;;;;;;6307921;22;20037;-74
2023/02/16 14:32:28;;;;;;;24.58;19.67;;;14.90;63.00;;;;;;6307692;22;20328;-75
2023/02/16 14:35:24;;;;;;;25.13;20.73;;;15.00;63.10;;;;;;6279985;22;20087;-76
2023/02/16 14:37:59;;;;;;;23.67;20.13;;;14.90;62.60;;;;;;6307630;22;20428;-76
2023/02/16 14:40:34;;;;;;;26.45;20.50;;;14.90;62.10;;;;;;6307554;22;19995;-74
2023/02/16 14:43:11;;;;;;;25.90;21.42;;;14.90;62.50;;;;;;6279966;22;20039;-75
2023/02/16 14:46:17;;;;;;;26.65;22.95;;;14.90;62.40;;;;;;6307854;22;20146;-76
2023/02/16 14:49:20;;;;;;;27.70;22.05;;;15.00;62.70;;;;;;6307639;22;20056;-76
2023/02/16 14:52:22;;;;;;;28.48;21.80;;;15.00;62.60;;;;;;6307187;22;20007;-76
2023/02/16 14:55:09;;;;;;;28.05;21.85;;;14.90;62.60;;;;;;6307179;22;20024;-75
2023/02/16 14:58:03;;;;;;;24.25;20.65;;;14.90;62.40;;;;;;6307115;22;20081;-76
2023/02/16 15:00:33;;;;;;;27.85;22.35;;;14.90;62.70;;;;;;6279816;22;20007;-75
2023/02/16 15:03:19;;;;;;;28.65;22.00;;;14.90;62.30;;;;;;6307290;22;19999;-76
2023/02/16 15:05:56;;;;;;;27.23;21.15;;;14.90;62.60;;;;;;6307333;22;20018;-74
2023/02/16 15:08:33;;;;;;;28.15;21.80;;;14.80;62.00;;;;;;6307038;22;19999;-74
2023/02/16 15:11:13;;;;;;;27.08;21.85;;;14.80;61.90;;;;;;6306957;22;20079;-75
2023/02/16 15:13:39;;;;;;;30.48;22.95;;;14.80;62.60;;;;;;6307094;22;20034;-75
2023/02/16 15:16:12;;;;;;;26.63;23.10;;;14.70;61.90;;;;;;6307091;22;20031;-74
2023/02/16 15:19:09;;;;;;;29.90;22.70;;;14.70;62.10;;;;;;6307019;22;20176;-75
2023/02/16 15:21:35;;;;;;;27.15;22.00;;;14.70;62.10;;;;;;6276508;22;20027;-75
2023/02/16 15:24:01;;;;;;;26.08;21.13;;;14.60;62.10;;;;;;6279614;22;20035;-75
2023/02/16 15:26:29;;;;;;;27.35;21.83;;;14.50;62.30;;;;;;6307050;22;20033;-74
2023/02/16 15:28:58;;;;;;;30.75;23.02;;;14.40;62.30;;;;;;6306948;22;20498;-75
2023/02/16 15:31:35;;;;;;;31.35;22.88;;;14.40;62.50;;;;;;6307435;22;20026;-75
2023/02/16 15:34:04;;;;;;;27.58;23.02;;;14.40;62.60;;;;;;6307167;22;20009;-75
2023/02/16 15:36:38;;;;;;;29.00;23.23;;;14.40;62.60;;;;;;6307485;22;20078;-76
2023/02/16 15:39:23;;;;;;;28.08;22.35;;;14.40;62.70;;;;;;6307077;22;20407;-75
2023/02/16 15:41:51;;;;;;;27.80;23.17;;;14.40;63.30;;;;;;6306754;22;20420;-75
2023/02/16 15:44:34;;;;;;;31.10;21.50;;;14.40;62.60;;;;;;6306857;22;20085;-76
2023/02/16 15:47:08;;;;;;;31.05;22.60;;;14.40;63.00;;;;;;6306546;22;20332;-75
2023/02/16 15:49:37;;;;;;;28.90;21.23;;;14.40;63.00;;;;;;6306915;22;20298;-75
2023/02/16 15:52:10;;;;;;;28.25;22.27;;;14.40;62.70;;;;;;6306752;22;20003;-75
2023/02/16 15:54:38;;;;;;;25.80;20.13;;;14.40;62.90;;;;;;6307345;22;20006;-76
2023/02/16 15:57:14;;;;;;;32.78;19.88;;;14.40;62.60;;;;;;6306394;22;20226;-76
2023/02/16 15:59:40;;;;;;;24.20;19.75;;;14.30;62.50;;;;;;6279050;22;20007;-77
2023/02/16 16:02:12;;;;;;;25.30;19.27;;;14.30;62.60;;;;;;6306123;22;20030;-75
2023/02/16 16:04:46;;;;;;;27.15;20.48;;;14.30;63.30;;;;;;6306417;22;20052;-75
2023/02/16 16:07:15;;;;;;;23.95;19.33;;;14.30;63.10;;;;;;6306288;22;20023;-76
2023/02/16 16:09:42;;;;;;;31.63;21.45;;;14.30;62.50;;;;;;6306469;22;19999;-76
2023/02/16 16:12:12;;;;;;;25.90;19.85;;;14.20;62.50;;;;;;6305725;22;19999;-73
2023/02/16 16:14:43;;;;;;;25.98;21.23;;;14.20;62.70;;;;;;6305802;22;19995;-75
2023/02/16 16:17:15;;;;;;;27.63;20.35;;;14.20;62.70;;;;;;6306341;22;20004;-75
2023/02/16 16:19:41;;;;;;;23.80;18.42;;;14.20;62.80;;;;;;6307051;22;19995;-75
2023/02/16 16:22:29;;;;;;;24.63;18.02;;;14.10;62.70;;;;;;6306146;22;20290;-75
2023/02/16 16:24:55;;;;;;;28.02;17.92;;;14.10;62.90;;;;;;6305953;22;20009;-75
2023/02/16 16:27:35;;;;;;;21.50;16.90;;;14.00;63.10;;;;;;6305909;22;20043;-75
2023/02/16 16:30:24;;;;;;;22.58;16.83;;;14.00;63.30;;;;;;6305432;22;20149;-76
2023/02/16 16:32:59;;;;;;;22.35;17.27;;;13.90;63.50;;;;;;6305871;22;19999;-74
2023/02/16 16:35:37;;;;;;;22.85;17.45;;;13.80;63.40;;;;;;6278605;22;20105;-73
2023/02/16 16:38:05;;;;;;;24.35;17.60;;;13.70;63.60;;;;;;6306066;22;20298;-75
2023/02/16 16:40:36;;;;;;;25.13;18.92;;;13.60;63.70;;;;;;6306269;22;20433;-76
2023/02/16 16:43:01;;;;;;;29.40;21.98;;;13.50;63.90;;;;;;6306900;22;20076;-75
2023/02/16 16:45:50;;;;;;;26.92;20.17;;;13.40;64.10;;;;;;6305801;22;20364;-75
2023/02/16 16:48:25;;;;;;;20.42;17.95;;;13.40;64.50;;;;;;6306333;22;19999;-74
2023/02/16 16:51:11;;;;;;;25.65;18.42;;;13.30;64.10;;;;;;6305787;22;20043;-75
2023/02/16 16:53:39;;;;;;;22.13;17.08;;;13.30;64.30;;;;;;6306442;22;20090;-75
2023/02/16 16:56:09;;;;;;;20.85;16.30;;;13.20;64.40;;;;;;6306231;22;19999;-74
2023/02/16 16:58:35;;;;;;;23.67;16.85;;;13.20;64.60;;;;;;6306296;22;20165;-75
2023/02/16 17:01:01;;;;;;;21.63;16.60;;;13.20;64.70;;;;;;6305771;22;20034;-75
2023/02/16 17:03:27;;;;;;;24.60;17.90;;;13.20;64.80;;;;;;6305532;22;19996;-74
2023/02/16 17:05:52;;;;;;;25.85;18.52;;;13.10;64.90;;;;;;6306343;22;20121;-75
2023/02/16 17:08:18;;;;;;;23.73;18.33;;;13.10;65.20;;;;;;6278348;22;20018;-73
2023/02/16 17:10:44;;;;;;;23.50;18.65;;;13.10;65.30;;;;;;6306167;22;19995;-75
2023/02/16 17:13:17;;;;;;;24.08;18.65;;;13.00;65.40;;;;;;6305622;22;20026;-75
2023/02/16 17:15:48;;;;;;;26.88;19.50;;;13.00;65.40;;;;;;6305740;22;20003;-74
2023/02/16 17:18:16;;;;;;;25.30;18.25;;;13.00;65.70;;;;;;6306194;22;20038;-75
2023/02/16 17:20:43;;;;;;;25.45;19.90;;;13.00;65.80;;;;;;6306410;22;19999;-74
2023/02/16 17:23:14;;;;;;;22.17;18.23;;;12.90;65.60;;;;;;6306537;22;20038;-74
2023/02/16 17:25:40;;;;;;;26.00;19.95;;;12.90;65.60;;;;;;6278983;22;20011;-75
2023/02/16 20:42:44;;;;;;;55.63;37.15;;;11.30;71.90;;;;;;6268291;22;20034;-78
2023/02/16 20:45:09;;;;;;;60.55;39.33;;;11.20;71.60;;;;;;6244570;23;20020;-78
2023/02/16 20:47:35;;;;;;;60.05;38.53;;;11.20;71.60;;;;;;6244295;23;20012;-76
2023/02/16 20:50:01;;;;;;;58.00;39.58;;;11.20;71.80;;;;;;6244151;23;20004;-77
2023/02/16 20:52:26;;;;;;;61.63;40.92;;;11.20;71.70;;;;;;6243910;23;20071;-78
2023/02/16 20:54:52;;;;;;;57.90;40.03;;;11.20;71.90;;;;;;6244567;23;20004;-76
2023/02/16 20:57:18;;;;;;;48.95;36.97;;;11.20;72.00;;;;;;6244177;23;20008;-78
2023/02/16 20:59:43;;;;;;;52.85;39.10;;;11.20;72.10;;;;;;6244843;23;20035;-78
2023/02/16 21:02:10;;;;;;;51.30;37.83;;;11.20;72.10;;;;;;6244703;23;20492;-78
2023/02/16 21:04:36;;;;;;;50.75;37.53;;;11.20;72.30;;;;;;6243972;23;19996;-78
2023/02/16 21:07:02;;;;;;;54.08;38.28;;;11.20;72.30;;;;;;6244049;23;20468;-79
2023/02/16 21:09:27;;;;;;;53.20;38.28;;;11.20;72.30;;;;;;6244660;23;20023;-78
2023/02/16 21:11:53;;;;;;;59.13;36.10;;;11.20;72.40;;;;;;6244661;23;20508;-80
2023/02/16 21:14:18;;;;;;;63.13;38.17;;;11.20;72.40;;;;;;6217881;23;20004;-79
2023/02/16 21:16:45;;;;;;;72.88;41.33;;;11.20;72.00;;;;;;6245062;23;20004;-80
2023/02/16 21:19:11;;;;;;;59.47;39.63;;;11.20;72.30;;;;;;6245184;23;20434;-80
2023/02/16 21:21:36;;;;;;;63.42;39.80;;;11.20;72.60;;;;;;6244942;23;20000;-79
2023/02/16 21:24:02;;;;;;;56.97;40.53;;;11.20;72.60;;;;;;6245004;23;20332;-80
2023/02/16 21:26:28;;;;;;;55.70;40.45;;;11.20;72.40;;;;;;6243340;23;20012;-78
2023/02/16 21:28:54;;;;;;;59.53;40.15;;;11.20;72.60;;;;;;6244581;23;19997;-77
2023/02/16 21:31:23;;;;;;;59.90;41.05;;;11.10;72.70;;;;;;6244487;23;20334;-80
2023/02/16 21:33:49;;;;;;;57.60;39.67;;;11.00;72.80;;;;;;6244787;23;20374;-78
2023/02/16 21:36:18;;;;;;;69.72;41.83;;;11.00;73.00;;;;;;6244966;23;19996;-79
2023/02/16 21:38:44;;;;;;;54.78;42.20;;;11.00;73.00;;;;;;6244757;23;20122;-77
2023/02/16 21:41:23;;;;;;;57.72;40.88;;;11.00;73.20;;;;;;6244826;23;20000;-79
2023/02/16 21:44:07;;;;;;;64.85;41.72;;;11.10;73.00;;;;;;6277184;22;20015;-80
2023/02/16 21:46:51;;;;;;;;;;;11.00;73.10;;;;;;6306568;22;20018;-80
2023/02/16 21:49:18;;;;;;;59.45;42.45;;;11.00;74.10;;;;;;6305956;22;19899;-79
2023/02/16 21:51:45;;;;;;;67.93;43.28;;;11.00;73.10;;;;;;6278399;22;20003;-80
2023/02/16 21:54:14;;;;;;;66.15;42.33;;;11.10;73.20;;;;;;6305601;22;20011;-80
2023/02/16 21:56:51;;;;;;;65.43;45.67;;;11.00;72.80;;;;;;6305876;22;20027;-80
2023/02/16 21:59:18;;;;;;;63.08;44.90;;;11.10;73.30;;;;;;6306020;22;20283;-82
2023/02/16 22:01:49;;;;;;;67.30;45.30;;;11.00;73.10;;;;;;6307416;22;20002;-80
2023/02/16 22:04:17;;;;;;;63.63;47.15;;;11.00;72.90;;;;;;6279899;22;20007;-80
2023/02/16 22:06:46;;;;;;;69.93;47.38;;;11.00;72.90;;;;;;6307773;22;20097;-79
2023/02/16 22:09:17;;;;;;;73.90;48.10;;;10.80;72.70;;;;;;6280442;22;20003;-81
2023/02/16 22:11:43;;;;;;;66.50;47.65;;;10.80;73.40;;;;;;6279885;22;20425;-80
2023/02/16 22:14:10;;;;;;;69.57;47.85;;;10.80;73.20;;;;;;6307588;22;20010;-79
2023/02/16 22:16:37;;;;;;;67.80;48.10;;;10.80;73.40;;;;;;6279720;22;20003;-78
2023/02/16 22:19:09;;;;;;;66.90;48.08;;;10.80;73.00;;;;;;6306362;22;20062;-77
2023/02/16 22:21:37;;;;;;;79.68;53.25;;;10.90;72.90;;;;;;6280245;22;20015;-78
2023/02/16 22:24:04;;;;;;;71.07;50.72;;;10.90;72.80;;;;;;6280472;22;20007;-78
2023/02/16 22:26:32;;;;;;;69.03;51.60;;;10.80;72.80;;;;;;6307119;22;20426;-78
2023/02/16 22:28:58;;;;;;;74.68;53.00;;;10.80;72.60;;;;;;6279988;22;20318;-77
2023/02/16 22:31:25;;;;;;;69.45;51.53;;;10.70;72.70;;;;;;6307397;22;19999;-77
2023/02/16 22:33:59;;;;;;;70.55;50.45;;;10.70;72.80;;;;;;6307105;22;20023;-78
2023/02/16 22:36:25;;;;;;;72.00;50.67;;;10.80;73.30;;;;;;6307205;22;20422;-77
2023/02/16 22:38:52;;;;;;;72.63;51.25;;;10.80;72.70;;;;;;6280029;22;20003;-78
2023/02/16 22:41:19;;;;;;;66.93;49.88;;;10.80;72.50;;;;;;6307537;22;20003;-77
2023/02/16 22:43:44;;;;;;;64.25;50.50;;;10.80;72.70;;;;;;6307182;22;20015;-77
2023/02/16 22:46:14;;;;;;;71.00;51.97;;;10.70;72.60;;;;;;6307351;22;20029;-78
2023/02/16 22:48:40;;;;;;;68.82;48.55;;;10.70;72.50;;;;;;6306804;22;19999;-77
2023/02/16 22:51:07;;;;;;;64.10;48.28;;;10.70;72.70;;;;;;6306943;22;19999;-77
2023/02/16 22:53:34;;;;;;;70.65;50.50;;;10.70;72.60;;;;;;6307023;22;20029;-76
2023/02/16 22:56:00;;;;;;;62.65;47.45;;;10.70;72.60;;;;;;6306788;22;20030;-77
2023/02/16 22:58:26;;;;;;;66.70;50.42;;;10.80;72.50;;;;;;6279490;22;20003;-76
2023/02/16 23:00:52;;;;;;;70.65;49.63;;;10.80;72.50;;;;;;6307360;22;20010;-77
2023/02/16 23:03:18;;;;;;;71.10;48.63;;;10.70;72.50;;;;;;6307318;22;20053;-75
2023/02/16 23:05:44;;;;;;;63.33;48.55;;;10.70;72.60;;;;;;6306952;22;20003;-78
2023/02/16 23:08:10;;;;;;;70.18;48.95;;;10.70;72.50;;;;;;6307179;22;20429;-77
2023/02/16 23:10:37;;;;;;;73.32;49.15;;;10.70;72.50;;;;;;6306627;22;20007;-76
2023/02/16 23:13:05;;;;;;;66.15;47.70;;;10.70;72.40;;;;;;6307013;22;20006;-77
2023/02/16 23:15:33;;;;;;;72.88;49.03;;;10.70;72.30;;;;;;6306911;22;20068;-76
2023/02/16 23:17:59;;;;;;;64.45;49.17;;;10.70;72.00;;;;;;6279670;22;20310;-77
2023/02/16 23:20:25;;;;;;;70.00;49.25;;;10.70;72.10;;;;;;6307001;22;20100;-77
2023/02/16 23:22:51;;;;;;;65.53;49.25;;;10.70;72.20;;;;;;6306836;22;19999;-76
2023/02/16 23:25:32;;;;;;;69.93;50.35;;;10.70;71.90;;;;;;6306656;22;19999;-77
2023/02/16 23:28:02;;;;;;;71.28;50.53;;;10.70;72.20;;;;;;6306728;22;20035;-76
2023/02/16 23:30:29;;;;;;;65.90;50.65;;;10.60;72.00;;;;;;6279366;22;19999;-76
2023/02/16 23:32:55;;;;;;;68.90;49.72;;;10.50;72.10;;;;;;6307384;22;20003;-76
2023/02/16 23:35:22;;;;;;;64.50;48.15;;;10.40;72.50;;;;;;6307050;22;20324;-76
2023/02/16 23:37:47;;;;;;;65.03;50.92;;;10.40;72.50;;;;;;6307002;22;20418;-77
2023/02/16 23:40:13;;;;;;;64.45;50.28;;;10.50;72.60;;;;;;6306927;22;20010;-77
2023/02/16 23:42:39;;;;;;;63.30;49.47;;;10.50;72.40;;;;;;6279227;22;20003;-77
2023/02/16 23:45:05;;;;;;;61.53;46.35;;;10.50;72.40;;;;;;6306617;22;20011;-76
2023/02/16 23:47:31;;;;;;;63.30;48.83;;;10.40;72.50;;;;;;6306538;22;20064;-77
2023/02/16 23:49:57;;;;;;;62.78;49.08;;;10.30;72.70;;;;;;6306758;22;20000;-77
2023/02/16 23:52:22;;;;;;;62.95;48.25;;;10.30;72.40;;;;;;6306645;22;20070;-76
2023/02/16 23:54:48;;;;;;;61.58;46.20;;;10.20;72.50;;;;;;6307458;22;19999;-77
2023/02/16 23:57:14;;;;;;;59.13;45.50;;;10.20;72.70;;;;;;6307035;22;20004;-76
2023/02/16 23:59:40;;;;;;;56.78;44.53;;;10.30;72.70;;;;;;6306948;22;20078;-76
